Tejo Alges — CQIL6 — position and weather

sailwx.info

Track history (hours):
 
Tides and Currents Weather Stations Pressure Air Temp Water Temp Dewpoint Dewpoint Depression Visibility Wind Speed Wind Dir Waves Ship Positions

Tejo Alges

Last reported at 2018-Jan-20 18:15 UTC. Time now 2018-Jan-21 08:39 UTC.
Position N 54°16' W 005°15'.

Length 90 m; draft 6 m.

Type: Cargo ship. MMSI: 205806994.

Date/timePositionNaut miles runAvg speedWind from/ knotsBaromVisibWave heightAir tempDewpointWater temp
2018-Jan-20 18:15N 54°16' W 005°15'311.4
2018-Jan-20 17:59N 54°19' W 005°15'611.0
2018-Jan-20 17:28N 54°24' W 005°16'510.7
2018-Jan-20 17:00N 54°29' W 005°18'510.3
2018-Jan-20 16:30N 54°34' W 005°20'5 9.9
2018-Jan-20 16:00N 54°39' W 005°24'5 9.3
2018-Jan-20 15:30N 54°43' W 005°28'510.1
2018-Jan-20 15:00N 54°43' W 005°36'611.3
2018-Jan-20 14:30N 54°41' W 005°46'  
2018-Jan-18 00:23N 54°37' W 005°53'1 1.9
2018-Jan-17 23:55N 54°38' W 005°53'  
2018-Jan-11 08:24N 39°16' W 009°51'3 8.0
2018-Jan-11 08:00N 39°13' W 009°51'4 7.9
2018-Jan-11 07:30N 39°09' W 009°50'4 8.0
2018-Jan-11 07:00N 39°05' W 009°51'4 8.0
2018-Jan-11 06:30N 39°01' W 009°52'4 8.2
2018-Jan-11 06:00N 38°57' W 009°52'4 8.2
2018-Jan-11 05:30N 38°53' W 009°52'4 8.0
2018-Jan-11 05:00N 38°49' W 009°52'4 8.0
2018-Jan-11 04:30N 38°45' W 009°52'4 7.9
2018-Jan-11 04:00N 38°41' W 009°51'4 7.2
2018-Jan-11 03:30N 38°38' W 009°50'4 7.9
2018-Jan-11 03:00N 38°38' W 009°45'4 7.8
2018-Jan-11 02:30N 38°38' W 009°40'4 7.7
2018-Jan-11 02:00N 38°39' W 009°35'4 7.8
2018-Jan-11 01:30N 38°39' W 009°30'4 7.1
2018-Jan-11 01:01N 38°40' W 009°25'0 0.5
2018-Jan-11 00:30N 38°40' W 009°25'0 0.0
2018-Jan-11 00:00N 38°40' W 009°25'0 0.1
2018-Jan-10 23:30N 38°40' W 009°25'0 0.1
2018-Jan-10 23:00N 38°40' W 009°25'1 1.8
2018-Jan-10 22:30N 38°39' W 009°25'2 4.1
2018-Jan-10 22:00N 38°37' W 009°25'2 4.9
2018-Jan-10 21:31N 38°35' W 009°24'4 7.8
2018-Jan-10 21:00N 38°31' W 009°24'4 8.0
2018-Jan-10 20:30N 38°27' W 009°24'4 8.0
2018-Jan-10 20:00N 38°23' W 009°24'4 7.9
2018-Jan-10 19:31N 38°19' W 009°24'4 7.7
2018-Jan-10 18:59N 38°15' W 009°23'4 7.5
2018-Jan-10 18:30N 38°11' W 009°23'  
Track history (hours):
 
Tides and Currents Weather Stations Pressure Air Temp Water Temp Dewpoint Dewpoint Depression Visibility Wind Speed Wind Dir Waves Ship Positions

Tejo Alges

Last reported at 2018-Jan-20 18:15 UTC. Time now 2018-Jan-21 08:39 UTC.
Position N 54°16' W 005°15'.

Length 90 m; draft 6 m.

Type: Cargo ship. MMSI: 205806994.

Date/timePositionNaut miles runAvg speedWind from/ knotsBaromVisibWave heightAir tempDewpointWater temp
2018-Jan-20 18:15N 54°16' W 005°15'311.4
2018-Jan-20 17:59N 54°19' W 005°15'611.0
2018-Jan-20 17:28N 54°24' W 005°16'510.7
2018-Jan-20 17:00N 54°29' W 005°18'510.3
2018-Jan-20 16:30N 54°34' W 005°20'5 9.9
2018-Jan-20 16:00N 54°39' W 005°24'5 9.3
2018-Jan-20 15:30N 54°43' W 005°28'510.1
2018-Jan-20 15:00N 54°43' W 005°36'611.3
2018-Jan-20 14:30N 54°41' W 005°46'  
2018-Jan-18 00:23N 54°37' W 005°53'1 1.9
2018-Jan-17 23:55N 54°38' W 005°53'  
2018-Jan-11 08:24N 39°16' W 009°51'3 8.0
2018-Jan-11 08:00N 39°13' W 009°51'4 7.9
2018-Jan-11 07:30N 39°09' W 009°50'4 8.0
2018-Jan-11 07:00N 39°05' W 009°51'4 8.0
2018-Jan-11 06:30N 39°01' W 009°52'4 8.2
2018-Jan-11 06:00N 38°57' W 009°52'4 8.2
2018-Jan-11 05:30N 38°53' W 009°52'4 8.0
2018-Jan-11 05:00N 38°49' W 009°52'4 8.0
2018-Jan-11 04:30N 38°45' W 009°52'4 7.9
2018-Jan-11 04:00N 38°41' W 009°51'4 7.2
2018-Jan-11 03:30N 38°38' W 009°50'4 7.9
2018-Jan-11 03:00N 38°38' W 009°45'4 7.8
2018-Jan-11 02:30N 38°38' W 009°40'4 7.7
2018-Jan-11 02:00N 38°39' W 009°35'4 7.8
2018-Jan-11 01:30N 38°39' W 009°30'4 7.1
2018-Jan-11 01:01N 38°40' W 009°25'0 0.5
2018-Jan-11 00:30N 38°40' W 009°25'0 0.0
2018-Jan-11 00:00N 38°40' W 009°25'0 0.1
2018-Jan-10 23:30N 38°40' W 009°25'0 0.1
2018-Jan-10 23:00N 38°40' W 009°25'1 1.8
2018-Jan-10 22:30N 38°39' W 009°25'2 4.1
2018-Jan-10 22:00N 38°37' W 009°25'2 4.9
2018-Jan-10 21:31N 38°35' W 009°24'4 7.8
2018-Jan-10 21:00N 38°31' W 009°24'4 8.0
2018-Jan-10 20:30N 38°27' W 009°24'4 8.0
2018-Jan-10 20:00N 38°23' W 009°24'4 7.9
2018-Jan-10 19:31N 38°19' W 009°24'4 7.7
2018-Jan-10 18:59N 38°15' W 009°23'4 7.5
2018-Jan-10 18:30N 38°11' W 009°23'  

Dump ship's entire track history